sensor_id;sensor_type;location;lat;lon;timestamp;pressure;altitude;pressure_sealevel;temperature;humidity
35910;BME280;22004;49.120;-0.200;2023-04-08T00:02:03;102119.84;;;10.26;64.71
35910;BME280;22004;49.120;-0.200;2023-04-08T00:04:29;102117.13;;;10.16;64.45
35910;BME280;22004;49.120;-0.200;2023-04-08T00:06:55;102114.19;;;10.09;64.58
35910;BME280;22004;49.120;-0.200;2023-04-08T00:09:21;102118.66;;;10.19;64.30
35910;BME280;22004;49.120;-0.200;2023-04-08T00:11:47;102114.31;;;9.98;64.90
35910;BME280;22004;49.120;-0.200;2023-04-08T00:14:12;102119.69;;;9.98;64.42
35910;BME280;22004;49.120;-0.200;2023-04-08T00:16:38;102113.47;;;10.07;64.42
35910;BME280;22004;49.120;-0.200;2023-04-08T00:19:03;102117.00;;;10.08;64.37
35910;BME280;22004;49.120;-0.200;2023-04-08T00:21:30;102110.09;;;9.96;64.67
35910;BME280;22004;49.120;-0.200;2023-04-08T00:23:56;102113.22;;;10.01;64.70
35910;BME280;22004;49.120;-0.200;2023-04-08T00:26:21;102111.09;;;9.95;64.77
35910;BME280;22004;49.120;-0.200;2023-04-08T00:28:46;102111.78;;;9.97;64.68
35910;BME280;22004;49.120;-0.200;2023-04-08T00:31:12;102109.69;;;9.91;64.29
35910;BME280;22004;49.120;-0.200;2023-04-08T00:33:37;102114.47;;;9.97;64.57
35910;BME280;22004;49.120;-0.200;2023-04-08T00:36:02;102109.81;;;9.99;64.31
35910;BME280;22004;49.120;-0.200;2023-04-08T00:38:28;102108.69;;;10.01;64.06
35910;BME280;22004;49.120;-0.200;2023-04-08T00:40:54;102105.75;;;9.95;64.08
35910;BME280;22004;49.120;-0.200;2023-04-08T00:43:19;102107.97;;;9.99;64.15
35910;BME280;22004;49.120;-0.200;2023-04-08T00:45:47;102111.34;;;10.11;63.80
35910;BME280;22004;49.120;-0.200;2023-04-08T00:48:12;102106.25;;;10.08;63.96
35910;BME280;22004;49.120;-0.200;2023-04-08T00:50:38;102099.47;;;10.04;64.14
35910;BME280;22004;49.120;-0.200;2023-04-08T00:53:03;102098.66;;;10.03;63.92
35910;BME280;22004;49.120;-0.200;2023-04-08T00:55:29;102103.47;;;10.00;64.25
35910;BME280;22004;49.120;-0.200;2023-04-08T00:57:55;102104.44;;;9.99;64.07
35910;BME280;22004;49.120;-0.200;2023-04-08T01:00:21;102110.66;;;9.99;63.86
35910;BME280;22004;49.120;-0.200;2023-04-08T01:02:57;102106.84;;;9.92;64.03
35910;BME280;22004;49.120;-0.200;2023-04-08T01:05:42;102104.75;;;9.86;63.96
35910;BME280;22004;49.120;-0.200;2023-04-08T01:08:12;102101.22;;;9.95;64.12
35910;BME280;22004;49.120;-0.200;2023-04-08T01:10:39;102105.88;;;9.74;64.34
35910;BME280;22004;49.120;-0.200;2023-04-08T01:13:13;102112.50;;;9.89;64.08
35910;BME280;22004;49.120;-0.200;2023-04-08T01:15:43;102110.69;;;9.90;64.25
35910;BME280;22004;49.120;-0.200;2023-04-08T01:18:10;102111.53;;;9.80;63.92
35910;BME280;22004;49.120;-0.200;2023-04-08T01:20:40;102101.22;;;9.76;64.16
35910;BME280;22004;49.120;-0.200;2023-04-08T01:25:53;102108.28;;;9.77;64.14
35910;BME280;22004;49.120;-0.200;2023-04-08T01:28:22;102103.50;;;9.71;64.25
35910;BME280;22004;49.120;-0.200;2023-04-08T01:30:48;102113.66;;;9.77;63.99
35910;BME280;22004;49.120;-0.200;2023-04-08T01:33:16;102108.56;;;9.74;64.22
35910;BME280;22004;49.120;-0.200;2023-04-08T01:35:42;102111.53;;;9.71;64.06
35910;BME280;22004;49.120;-0.200;2023-04-08T01:38:10;102113.66;;;9.77;63.69
35910;BME280;22004;49.120;-0.200;2023-04-08T01:40:39;102113.38;;;9.70;63.74
35910;BME280;22004;49.120;-0.200;2023-04-08T01:43:07;102115.50;;;9.67;64.17
35910;BME280;22004;49.120;-0.200;2023-04-08T01:45:33;102113.91;;;9.74;64.10
35910;BME280;22004;49.120;-0.200;2023-04-08T01:47:59;102114.34;;;9.59;63.73
35910;BME280;22004;49.120;-0.200;2023-04-08T01:50:26;102117.47;;;9.55;63.98
35910;BME280;22004;49.120;-0.200;2023-04-08T01:52:51;102120.84;;;9.76;63.97
35910;BME280;22004;49.120;-0.200;2023-04-08T01:55:19;102113.78;;;9.66;64.15
35910;BME280;22004;49.120;-0.200;2023-04-08T01:57:48;102116.19;;;9.78;63.84
35910;BME280;22004;49.120;-0.200;2023-04-08T02:00:18;102120.13;;;9.84;63.82
35910;BME280;22004;49.120;-0.200;2023-04-08T02:02:44;102114.91;;;9.73;63.76
35910;BME280;22004;49.120;-0.200;2023-04-08T02:05:11;102117.31;;;9.86;63.54
35910;BME280;22004;49.120;-0.200;2023-04-08T02:07:37;102114.22;;;9.51;64.05
35910;BME280;22004;49.120;-0.200;2023-04-08T02:10:03;102117.31;;;9.66;63.87
35910;BME280;22004;49.120;-0.200;2023-04-08T02:12:28;102118.31;;;9.65;64.00
35910;BME280;22004;49.120;-0.200;2023-04-08T02:14:54;102128.03;;;9.47;64.02
35910;BME280;22004;49.120;-0.200;2023-04-08T02:20:09;102129.72;;;9.57;64.32
35910;BME280;22004;49.120;-0.200;2023-04-08T02:22:42;102122.97;;;9.73;63.30
35910;BME280;22004;49.120;-0.200;2023-04-08T02:25:12;102129.72;;;9.48;63.94
35910;BME280;22004;49.120;-0.200;2023-04-08T02:27:39;102126.75;;;9.31;64.22
35910;BME280;22004;49.120;-0.200;2023-04-08T02:30:07;102127.88;;;9.39;64.75
35910;BME280;22004;49.120;-0.200;2023-04-08T02:32:35;102128.44;;;9.32;64.45
35910;BME280;22004;49.120;-0.200;2023-04-08T02:35:01;102132.25;;;9.40;63.85
35910;BME280;22004;49.120;-0.200;2023-04-08T02:37:28;102128.44;;;9.32;64.03
35910;BME280;22004;49.120;-0.200;2023-04-08T02:39:53;102125.63;;;9.44;63.89
35910;BME280;22004;49.120;-0.200;2023-04-08T02:42:19;102129.31;;;9.62;63.85
35910;BME280;22004;49.120;-0.200;2023-04-08T02:44:44;102130.56;;;9.39;63.72
35910;BME280;22004;49.120;-0.200;2023-04-08T02:47:10;102130.13;;;9.33;63.96
35910;BME280;22004;49.120;-0.200;2023-04-08T02:49:35;102131.38;;;9.29;64.07
35910;BME280;22004;49.120;-0.200;2023-04-08T02:52:01;102136.88;;;9.28;64.12
35910;BME280;22004;49.120;-0.200;2023-04-08T02:54:26;102130.13;;;9.33;64.24
35910;BME280;22004;49.120;-0.200;2023-04-08T02:56:51;102135.22;;;9.37;63.90
35910;BME280;22004;49.120;-0.200;2023-04-08T02:59:17;102140.56;;;9.37;63.77
35910;BME280;22004;49.120;-0.200;2023-04-08T03:01:42;102132.41;;;9.48;63.38
35910;BME280;22004;49.120;-0.200;2023-04-08T03:04:07;102143.84;;;9.50;63.37
35910;BME280;22004;49.120;-0.200;2023-04-08T03:06:33;102144.13;;;9.56;62.99
35910;BME280;22004;49.120;-0.200;2023-04-08T03:08:58;102153.44;;;9.62;62.92
35910;BME280;22004;49.120;-0.200;2023-04-08T03:11:23;102150.31;;;9.38;63.61
35910;BME280;22004;49.120;-0.200;2023-04-08T03:13:49;102155.84;;;9.46;63.06
35910;BME280;22004;49.120;-0.200;2023-04-08T03:16:14;102150.84;;;9.22;63.13
35910;BME280;22004;49.120;-0.200;2023-04-08T03:18:40;102161.81;;;9.19;63.11
35910;BME280;22004;49.120;-0.200;2023-04-08T03:21:05;102154.94;;;9.26;62.78
35910;BME280;22004;49.120;-0.200;2023-04-08T03:23:31;102159.56;;;9.24;63.32
35910;BME280;22004;49.120;-0.200;2023-04-08T03:25:56;102157.06;;;9.32;63.05
35910;BME280;22004;49.120;-0.200;2023-04-08T03:28:21;102157.75;;;9.24;62.93
35910;BME280;22004;49.120;-0.200;2023-04-08T03:30:47;102156.25;;;9.41;62.78
35910;BME280;22004;49.120;-0.200;2023-04-08T03:33:13;102157.03;;;9.22;62.83
35910;BME280;22004;49.120;-0.200;2023-04-08T03:35:38;102165.38;;;9.29;63.11
35910;BME280;22004;49.120;-0.200;2023-04-08T03:38:03;102155.06;;;9.24;62.59
35910;BME280;22004;49.120;-0.200;2023-04-08T03:40:29;102165.09;;;9.22;62.82
35910;BME280;22004;49.120;-0.200;2023-04-08T03:42:54;102174.69;;;9.35;62.65
35910;BME280;22004;49.120;-0.200;2023-04-08T03:45:20;102170.63;;;9.40;62.24
35910;BME280;22004;49.120;-0.200;2023-04-08T03:47:45;102167.63;;;9.33;62.44
35910;BME280;22004;49.120;-0.200;2023-04-08T03:50:11;102171.13;;;9.24;62.38
35910;BME280;22004;49.120;-0.200;2023-04-08T03:52:36;102170.22;;;9.54;61.85
35910;BME280;22004;49.120;-0.200;2023-04-08T03:55:01;102172.78;;;9.66;61.95
35910;BME280;22004;49.120;-0.200;2023-04-08T03:57:27;102181.53;;;9.58;61.88
35910;BME280;22004;49.120;-0.200;2023-04-08T03:59:52;102182.34;;;9.49;62.25
35910;BME280;22004;49.120;-0.200;2023-04-08T04:02:18;102184.56;;;9.34;62.23
35910;BME280;22004;49.120;-0.200;2023-04-08T04:04:43;102185.09;;;9.18;62.38
35910;BME280;22004;49.120;-0.200;2023-04-08T04:07:08;102187.19;;;9.15;62.46
35910;BME280;22004;49.120;-0.200;2023-04-08T04:09:34;102182.03;;;9.32;62.00
35910;BME280;22004;49.120;-0.200;2023-04-08T04:11:59;102183.81;;;9.13;62.65
35910;BME280;22004;49.120;-0.200;2023-04-08T04:14:24;102188.75;;;9.17;62.21
35910;BME280;22004;49.120;-0.200;2023-04-08T04:16:50;102185.28;;;9.26;62.21
35910;BME280;22004;49.120;-0.200;2023-04-08T04:19:15;102192.53;;;9.05;62.47
35910;BME280;22004;49.120;-0.200;2023-04-08T04:21:42;102189.53;;;9.39;61.87
35910;BME280;22004;49.120;-0.200;2023-04-08T04:24:07;102193.94;;;9.09;62.31
35910;BME280;22004;49.120;-0.200;2023-04-08T04:26:33;102191.31;;;9.28;62.36
35910;BME280;22004;49.120;-0.200;2023-04-08T04:28:58;102189.38;;;9.30;61.91
35910;BME280;22004;49.120;-0.200;2023-04-08T04:31:24;102194.31;;;9.25;62.36
35910;BME280;22004;49.120;-0.200;2023-04-08T04:33:51;102199.88;;;9.13;61.83
35910;BME280;22004;49.120;-0.200;2023-04-08T04:36:17;102200.06;;;9.21;61.66
35910;BME280;22004;49.120;-0.200;2023-04-08T04:38:43;102209.06;;;9.20;62.01
35910;BME280;22004;49.120;-0.200;2023-04-08T04:41:09;102208.88;;;9.02;62.09
35910;BME280;22004;49.120;-0.200;2023-04-08T04:43:34;102206.19;;;9.02;61.78
35910;BME280;22004;49.120;-0.200;2023-04-08T04:45:59;102210.47;;;9.14;62.09
35910;BME280;22004;49.120;-0.200;2023-04-08T04:48:26;102209.75;;;9.12;62.17
35910;BME280;22004;49.120;-0.200;2023-04-08T04:50:55;102209.63;;;9.14;62.25
35910;BME280;22004;49.120;-0.200;2023-04-08T04:53:21;102207.94;;;9.13;61.67
35910;BME280;22004;49.120;-0.200;2023-04-08T04:55:46;102206.72;;;9.26;61.69
35910;BME280;22004;49.120;-0.200;2023-04-08T04:58:11;102213.84;;;9.06;61.70
35910;BME280;22004;49.120;-0.200;2023-04-08T05:00:37;102221.28;;;9.03;61.86
35910;BME280;22004;49.120;-0.200;2023-04-08T05:03:02;102224.69;;;9.15;61.39
35910;BME280;22004;49.120;-0.200;2023-04-08T05:05:27;102223.97;;;9.03;61.25
35910;BME280;22004;49.120;-0.200;2023-04-08T05:07:53;102211.44;;;9.13;61.46
35910;BME280;22004;49.120;-0.200;2023-04-08T05:10:18;102215.31;;;9.20;61.12
35910;BME280;22004;49.120;-0.200;2023-04-08T05:12:43;102210.31;;;9.06;61.09
35910;BME280;22004;49.120;-0.200;2023-04-08T05:15:09;102217.94;;;9.11;61.56
35910;BME280;22004;49.120;-0.200;2023-04-08T05:17:35;102213.56;;;9.19;61.55
35910;BME280;22004;49.120;-0.200;2023-04-08T05:20:00;102212.50;;;8.91;61.23
35910;BME280;22004;49.120;-0.200;2023-04-08T05:22:26;102223.91;;;8.93;61.61
35910;BME280;22004;49.120;-0.200;2023-04-08T05:24:51;102226.91;;;9.00;61.32
35910;BME280;22004;49.120;-0.200;2023-04-08T05:27:16;102226.00;;;8.90;61.71
35910;BME280;22004;49.120;-0.200;2023-04-08T05:29:42;102226.88;;;8.90;61.87
35910;BME280;22004;49.120;-0.200;2023-04-08T05:32:07;102236.59;;;8.91;61.64
35910;BME280;22004;49.120;-0.200;2023-04-08T05:34:32;102237.03;;;8.96;61.49
35910;BME280;22004;49.120;-0.200;2023-04-08T05:36:58;102246.28;;;8.83;61.52
35910;BME280;22004;49.120;-0.200;2023-04-08T05:39:23;102245.44;;;8.82;61.86
35910;BME280;22004;49.120;-0.200;2023-04-08T05:41:48;102244.13;;;8.76;62.03
35910;BME280;22004;49.120;-0.200;2023-04-08T05:44:14;102252.47;;;8.83;61.46
35910;BME280;22004;49.120;-0.200;2023-04-08T05:46:40;102252.44;;;9.04;61.22
35910;BME280;22004;49.120;-0.200;2023-04-08T05:49:05;102261.22;;;9.06;61.31
35910;BME280;22004;49.120;-0.200;2023-04-08T05:51:30;102271.72;;;8.98;61.20
35910;BME280;22004;49.120;-0.200;2023-04-08T05:53:56;102269.06;;;8.98;61.62
35910;BME280;22004;49.120;-0.200;2023-04-08T05:56:21;102268.59;;;8.93;61.51
35910;BME280;22004;49.120;-0.200;2023-04-08T05:58:46;102272.41;;;8.90;61.59
35910;BME280;22004;49.120;-0.200;2023-04-08T06:01:12;102271.53;;;8.90;61.61
35910;BME280;22004;49.120;-0.200;2023-04-08T06:03:38;102277.34;;;9.16;61.23
35910;BME280;22004;49.120;-0.200;2023-04-08T06:06:03;102280.31;;;9.22;61.29
35910;BME280;22004;49.120;-0.200;2023-04-08T06:08:33;102273.34;;;9.10;61.05
35910;BME280;22004;49.120;-0.200;2023-04-08T06:10:58;102278.25;;;9.36;60.42
35910;BME280;22004;49.120;-0.200;2023-04-08T06:13:23;102282.44;;;9.28;60.90
35910;BME280;22004;49.120;-0.200;2023-04-08T06:15:50;102286.31;;;9.36;60.73
35910;BME280;22004;49.120;-0.200;2023-04-08T06:18:15;102286.00;;;9.39;60.65
35910;BME280;22004;49.120;-0.200;2023-04-08T06:20:41;102293.41;;;9.16;61.07
35910;BME280;22004;49.120;-0.200;2023-04-08T06:23:06;102294.09;;;9.48;60.25
35910;BME280;22004;49.120;-0.200;2023-04-08T06:25:32;102298.63;;;9.17;60.71
35910;BME280;22004;49.120;-0.200;2023-04-08T06:27:57;102295.69;;;9.51;60.08
35910;BME280;22004;49.120;-0.200;2023-04-08T06:30:22;102291.47;;;9.27;60.65
35910;BME280;22004;49.120;-0.200;2023-04-08T06:32:48;102293.94;;;9.40;60.79
35910;BME280;22004;49.120;-0.200;2023-04-08T06:35:13;102295.75;;;9.40;60.77
35910;BME280;22004;49.120;-0.200;2023-04-08T06:37:38;102310.88;;;9.41;60.81
35910;BME280;22004;49.120;-0.200;2023-04-08T06:40:05;102304.97;;;9.47;60.46
35910;BME280;22004;49.120;-0.200;2023-04-08T06:42:30;102301.59;;;9.45;61.00
35910;BME280;22004;49.120;-0.200;2023-04-08T06:44:56;102304.81;;;9.48;60.65
35910;BME280;22004;49.120;-0.200;2023-04-08T06:47:22;102309.81;;;9.63;60.41
35910;BME280;22004;49.120;-0.200;2023-04-08T06:49:47;102317.56;;;9.56;60.54
35910;BME280;22004;49.120;-0.200;2023-04-08T06:52:12;102317.63;;;10.35;58.32
35910;BME280;22004;49.120;-0.200;2023-04-08T06:54:38;102327.72;;;12.11;53.20
35910;BME280;22004;49.120;-0.200;2023-04-08T06:57:03;102330.41;;;12.64;51.53
35910;BME280;22004;49.120;-0.200;2023-04-08T06:59:29;102334.81;;;12.91;50.84
35910;BME280;22004;49.120;-0.200;2023-04-08T07:01:54;102330.19;;;13.88;48.46
35910;BME280;22004;49.120;-0.200;2023-04-08T07:04:19;102329.97;;;14.56;47.13
35910;BME280;22004;49.120;-0.200;2023-04-08T07:06:45;102339.34;;;16.51;42.42
35910;BME280;22004;49.120;-0.200;2023-04-08T07:09:11;102337.25;;;15.60;43.98
35910;BME280;22004;49.120;-0.200;2023-04-08T07:11:36;102343.25;;;15.39;44.61
35910;BME280;22004;49.120;-0.200;2023-04-08T07:14:01;102350.47;;;16.57;42.04
35910;BME280;22004;49.120;-0.200;2023-04-08T07:16:27;102342.69;;;16.53;42.19
35910;BME280;22004;49.120;-0.200;2023-04-08T07:18:52;102348.03;;;16.16;42.69
35910;BME280;22004;49.120;-0.200;2023-04-08T07:21:18;102341.66;;;15.69;44.20
35910;BME280;22004;49.120;-0.200;2023-04-08T07:23:43;102339.75;;;15.22;45.55
35910;BME280;22004;49.120;-0.200;2023-04-08T07:26:08;102345.50;;;15.19;46.08
35910;BME280;22004;49.120;-0.200;2023-04-08T07:28:34;102342.50;;;14.90;47.14
35910;BME280;22004;49.120;-0.200;2023-04-08T07:31:16;102342.97;;;15.02;46.95
35910;BME280;22004;49.120;-0.200;2023-04-08T07:33:42;102334.53;;;15.13;47.09
35910;BME280;22004;49.120;-0.200;2023-04-08T07:36:08;102345.72;;;15.65;45.62
35910;BME280;22004;49.120;-0.200;2023-04-08T07:38:33;102335.09;;;15.95;45.53
35910;BME280;22004;49.120;-0.200;2023-04-08T07:40:59;102338.00;;;15.93;45.64
35910;BME280;22004;49.120;-0.200;2023-04-08T07:43:25;102334.03;;;16.58;45.34
35910;BME280;22004;49.120;-0.200;2023-04-08T07:45:50;102332.44;;;16.41;44.10
35910;BME280;22004;49.120;-0.200;2023-04-08T07:48:16;102339.75;;;16.86;43.64
35910;BME280;22004;49.120;-0.200;2023-04-08T07:50:41;102324.94;;;17.56;42.74
35910;BME280;22004;49.120;-0.200;2023-04-08T07:53:07;102333.94;;;16.89;44.17
35910;BME280;22004;49.120;-0.200;2023-04-08T07:55:35;102338.97;;;17.30;43.44
35910;BME280;22004;49.120;-0.200;2023-04-08T07:58:00;102326.22;;;16.09;45.31
35910;BME280;22004;49.120;-0.200;2023-04-08T08:00:26;102327.09;;;17.16;44.50
35910;BME280;22004;49.120;-0.200;2023-04-08T08:02:54;102324.09;;;17.26;43.47
35910;BME280;22004;49.120;-0.200;2023-04-08T08:05:20;102325.09;;;17.99;43.45
35910;BME280;22004;49.120;-0.200;2023-04-08T08:07:45;102329.78;;;15.23;49.82
35910;BME280;22004;49.120;-0.200;2023-04-08T08:10:10;102333.97;;;16.43;48.26
35910;BME280;22004;49.120;-0.200;2023-04-08T08:12:36;102327.91;;;18.27;43.20
35910;BME280;22004;49.120;-0.200;2023-04-08T08:15:02;102328.84;;;17.09;46.33
35910;BME280;22004;49.120;-0.200;2023-04-08T08:17:27;102334.53;;;16.08;49.36
35910;BME280;22004;49.120;-0.200;2023-04-08T08:19:55;102333.66;;;16.38;48.03
35910;BME280;22004;49.120;-0.200;2023-04-08T08:22:21;102325.00;;;18.28;43.26
35910;BME280;22004;49.120;-0.200;2023-04-08T08:24:46;102330.00;;;17.74;44.60
35910;BME280;22004;49.120;-0.200;2023-04-08T08:27:12;102331.72;;;18.54;44.82
35910;BME280;22004;49.120;-0.200;2023-04-08T08:29:37;102330.56;;;18.20;44.33
35910;BME280;22004;49.120;-0.200;2023-04-08T08:32:03;102343.25;;;17.10;43.91
35910;BME280;22004;49.120;-0.200;2023-04-08T08:34:29;102349.19;;;16.90;48.79
35910;BME280;22004;49.120;-0.200;2023-04-08T08:36:54;102344.19;;;18.05;44.10
35910;BME280;22004;49.120;-0.200;2023-04-08T08:39:20;102352.00;;;16.82;45.20
35910;BME280;22004;49.120;-0.200;2023-04-08T08:41:45;102346.28;;;16.77;45.50
35910;BME280;22004;49.120;-0.200;2023-04-08T08:44:11;102350.97;;;17.21;45.85
35910;BME280;22004;49.120;-0.200;2023-04-08T08:46:42;102344.25;;;17.76;45.49
35910;BME280;22004;49.120;-0.200;2023-04-08T08:49:09;102349.78;;;15.61;48.00
35910;BME280;22004;49.120;-0.200;2023-04-08T08:51:34;102354.00;;;15.72;47.89
35910;BME280;22004;49.120;-0.200;2023-04-08T08:54:03;102349.81;;;15.53;47.90
35910;BME280;22004;49.120;-0.200;2023-04-08T08:56:29;102347.91;;;14.57;48.63
35910;BME280;22004;49.120;-0.200;2023-04-08T08:58:54;102349.50;;;15.48;49.23
35910;BME280;22004;49.120;-0.200;2023-04-08T09:01:32;102340.09;;;15.75;47.48
35910;BME280;22004;49.120;-0.200;2023-04-08T09:04:16;102341.75;;;14.22;50.53
35910;BME280;22004;49.120;-0.200;2023-04-08T09:06:48;102343.19;;;15.56;48.74
35910;BME280;22004;49.120;-0.200;2023-04-08T09:09:15;102333.13;;;16.89;46.89
35910;BME280;22004;49.120;-0.200;2023-04-08T09:11:43;102337.78;;;15.72;48.17
35910;BME280;22004;49.120;-0.200;2023-04-08T09:14:22;102331.50;;;16.57;47.28
35910;BME280;22004;49.120;-0.200;2023-04-08T09:16:47;102336.25;;;15.69;48.22
35910;BME280;22004;49.120;-0.200;2023-04-08T09:19:13;102340.41;;;16.65;46.95
35910;BME280;22004;49.120;-0.200;2023-04-08T09:21:39;102345.56;;;15.50;48.85
35910;BME280;22004;49.120;-0.200;2023-04-08T09:24:06;102343.38;;;15.46;49.88
35910;BME280;22004;49.120;-0.200;2023-04-08T09:26:32;102347.22;;;14.80;50.33
35910;BME280;22004;49.120;-0.200;2023-04-08T09:28:59;102346.03;;;15.79;49.52
35910;BME280;22004;49.120;-0.200;2023-04-08T09:31:36;102349.81;;;16.00;49.13
35910;BME280;22004;49.120;-0.200;2023-04-08T09:34:15;102347.72;;;14.91;49.65
35910;BME280;22004;49.120;-0.200;2023-04-08T09:36:41;102348.06;;;14.80;49.64
35910;BME280;22004;49.120;-0.200;2023-04-08T09:39:09;102351.44;;;14.98;50.03
35910;BME280;22004;49.120;-0.200;2023-04-08T09:41:35;102347.53;;;15.09;49.67
35910;BME280;22004;49.120;-0.200;2023-04-08T09:44:06;102344.41;;;15.53;48.78
35910;BME280;22004;49.120;-0.200;2023-04-08T09:49:26;102340.63;;;15.70;48.24
35910;BME280;22004;49.120;-0.200;2023-04-08T09:52:19;102343.72;;;15.98;49.84
35910;BME280;22004;49.120;-0.200;2023-04-08T09:55:18;102341.22;;;15.97;48.06
35910;BME280;22004;49.120;-0.200;2023-04-08T09:57:58;102342.53;;;15.45;48.28
35910;BME280;22004;49.120;-0.200;2023-04-08T10:00:36;102342.47;;;15.78;49.05
35910;BME280;22004;49.120;-0.200;2023-04-08T10:03:16;102345.91;;;16.26;47.55
35910;BME280;22004;49.120;-0.200;2023-04-08T10:05:47;102345.00;;;14.42;49.05
35910;BME280;22004;49.120;-0.200;2023-04-08T10:08:14;102339.09;;;15.04;49.68
35910;BME280;22004;49.120;-0.200;2023-04-08T10:10:41;102353.88;;;14.27;50.04
35910;BME280;22004;49.120;-0.200;2023-04-08T10:13:07;102347.56;;;14.02;50.69
35910;BME280;22004;49.120;-0.200;2023-04-08T10:15:35;102353.81;;;14.53;50.17
35910;BME280;22004;49.120;-0.200;2023-04-08T10:25:45;102336.00;;;14.42;48.70
35910;BME280;22004;49.120;-0.200;2023-04-08T10:33:12;102335.94;;;14.01;49.57
35910;BME280;22004;49.120;-0.200;2023-04-08T10:35:41;102339.53;;;13.67;50.65
35910;BME280;22004;49.120;-0.200;2023-04-08T10:38:07;102325.09;;;14.92;49.56
35910;BME280;22004;49.120;-0.200;2023-04-08T10:40:39;102327.28;;;14.48;48.57
35910;BME280;22004;49.120;-0.200;2023-04-08T10:43:07;102329.91;;;15.21;48.46
35910;BME280;22004;49.120;-0.200;2023-04-08T10:45:33;102322.25;;;15.49;47.46
35910;BME280;22004;49.120;-0.200;2023-04-08T10:48:22;102320.34;;;14.86;49.58
35910;BME280;22004;49.120;-0.200;2023-04-08T10:50:58;102324.69;;;15.28;48.36
35910;BME280;22004;49.120;-0.200;2023-04-08T10:53:35;102330.72;;;15.46;48.42
35910;BME280;22004;49.120;-0.200;2023-04-08T10:56:09;102311.78;;;15.46;48.71
35910;BME280;22004;49.120;-0.200;2023-04-08T10:58:53;102314.25;;;15.00;48.17
35910;BME280;22004;49.120;-0.200;2023-04-08T11:01:20;102314.59;;;14.57;47.64
35910;BME280;22004;49.120;-0.200;2023-04-08T11:03:47;102307.88;;;15.41;47.14
35910;BME280;22004;49.120;-0.200;2023-04-08T11:06:12;102312.78;;;15.45;48.57
35910;BME280;22004;49.120;-0.200;2023-04-08T11:08:38;102304.81;;;14.80;47.65
35910;BME280;22004;49.120;-0.200;2023-04-08T11:11:05;102319.00;;;14.74;47.76
35910;BME280;22004;49.120;-0.200;2023-04-08T11:13:35;102317.44;;;14.22;49.28
35910;BME280;22004;49.120;-0.200;2023-04-08T11:16:03;102314.44;;;14.50;49.12
35910;BME280;22004;49.120;-0.200;2023-04-08T11:18:29;102308.56;;;14.63;47.81
35910;BME280;22004;49.120;-0.200;2023-04-08T11:20:56;102305.41;;;15.23;48.38
35910;BME280;22004;49.120;-0.200;2023-04-08T11:23:23;102308.41;;;15.36;47.76
35910;BME280;22004;49.120;-0.200;2023-04-08T11:25:49;102311.72;;;15.07;48.39
35910;BME280;22004;49.120;-0.200;2023-04-08T11:28:15;102303.53;;;15.32;48.88
35910;BME280;22004;49.120;-0.200;2023-04-08T11:30:41;102302.28;;;14.79;49.53
35910;BME280;22004;49.120;-0.200;2023-04-08T11:33:07;102311.34;;;15.10;48.94
35910;BME280;22004;49.120;-0.200;2023-04-08T11:35:33;102301.88;;;15.14;48.64
35910;BME280;22004;49.120;-0.200;2023-04-08T11:37:59;102299.69;;;14.20;49.10
35910;BME280;22004;49.120;-0.200;2023-04-08T11:40:24;102301.44;;;15.50;49.64
35910;BME280;22004;49.120;-0.200;2023-04-08T11:42:51;102298.16;;;15.23;49.46
35910;BME280;22004;49.120;-0.200;2023-04-08T11:45:18;102294.09;;;15.11;49.13
35910;BME280;22004;49.120;-0.200;2023-04-08T11:47:47;102298.13;;;15.32;48.50
35910;BME280;22004;49.120;-0.200;2023-04-08T11:50:21;102291.69;;;15.33;46.70
35910;BME280;22004;49.120;-0.200;2023-04-08T11:52:49;102301.56;;;15.09;48.62
35910;BME280;22004;49.120;-0.200;2023-04-08T11:55:29;102294.41;;;15.24;48.67
35910;BME280;22004;49.120;-0.200;2023-04-08T11:57:56;102294.56;;;15.31;49.34
35910;BME280;22004;49.120;-0.200;2023-04-08T12:00:22;102294.41;;;15.33;47.82
35910;BME280;22004;49.120;-0.200;2023-04-08T12:02:48;102288.81;;;15.26;48.04
35910;BME280;22004;49.120;-0.200;2023-04-08T12:05:15;102290.88;;;15.24;48.49
35910;BME280;22004;49.120;-0.200;2023-04-08T12:07:41;102287.91;;;14.37;50.19
35910;BME280;22004;49.120;-0.200;2023-04-08T12:10:07;102288.78;;;15.42;48.70
35910;BME280;22004;49.120;-0.200;2023-04-08T12:12:33;102284.94;;;15.20;47.64
35910;BME280;22004;49.120;-0.200;2023-04-08T12:14:58;102287.91;;;14.62;48.56
35910;BME280;22004;49.120;-0.200;2023-04-08T12:17:24;102281.34;;;14.56;49.82
35910;BME280;22004;49.120;-0.200;2023-04-08T12:19:49;102286.91;;;14.79;49.76
35910;BME280;22004;49.120;-0.200;2023-04-08T12:22:15;102278.22;;;15.56;48.29
35910;BME280;22004;49.120;-0.200;2023-04-08T12:24:41;102272.47;;;15.11;47.37
35910;BME280;22004;49.120;-0.200;2023-04-08T12:27:06;102268.75;;;15.68;48.32
35910;BME280;22004;49.120;-0.200;2023-04-08T12:29:31;102268.94;;;15.58;47.44
35910;BME280;22004;49.120;-0.200;2023-04-08T12:31:57;102266.63;;;15.47;48.44
35910;BME280;22004;49.120;-0.200;2023-04-08T12:34:23;102267.81;;;15.36;47.70
35910;BME280;22004;49.120;-0.200;2023-04-08T12:36:49;102256.47;;;15.41;47.69
35910;BME280;22004;49.120;-0.200;2023-04-08T12:39:14;102254.91;;;15.86;47.06
35910;BME280;22004;49.120;-0.200;2023-04-08T12:41:40;102264.44;;;15.42;46.53
35910;BME280;22004;49.120;-0.200;2023-04-08T12:44:05;102266.13;;;15.35;47.39
35910;BME280;22004;49.120;-0.200;2023-04-08T12:46:30;102256.56;;;15.64;45.93
35910;BME280;22004;49.120;-0.200;2023-04-08T12:48:56;102259.41;;;15.70;48.14
35910;BME280;22004;49.120;-0.200;2023-04-08T12:51:22;102260.53;;;14.97;47.83
35910;BME280;22004;49.120;-0.200;2023-04-08T12:53:47;102254.63;;;14.20;49.37
35910;BME280;22004;49.120;-0.200;2023-04-08T12:56:12;102255.84;;;14.51;50.07
35910;BME280;22004;49.120;-0.200;2023-04-08T12:58:38;102256.13;;;13.99;49.45
35910;BME280;22004;49.120;-0.200;2023-04-08T13:01:03;102258.16;;;14.21;50.06
35910;BME280;22004;49.120;-0.200;2023-04-08T13:03:29;102261.41;;;13.58;50.46
35910;BME280;22004;49.120;-0.200;2023-04-08T13:05:56;102260.31;;;15.07;50.74